Impacts TAF Board
For situational awareness. Not to be used for flight planning purposes.
IDs:

KCEC - Crescent City/McNama, CA, US

Issued at 0538 UTC 22 Oct 2021
Updated at 0602 UTC 22 Oct 2021
Potential Impact None Slight Moderate High
Time0556Z 22/07Z 22/08Z 22/09Z 22/10Z 22/11Z 22/12Z 22/13Z 22/14Z 22/15Z 22/16Z 22/17Z 22/18Z 22/19Z>>
Type OBS PRVL
  [TEMP]  
PRVL
  [TEMP]  
PRVL
  [TEMP]  
PRVL
  [TEMP]  
PRVL
  [TEMP]  
PRVL
  [TEMP]  
PRVL PRVL PRVL PRVL PRVL PRVL PRVL
VIS 5 6
  [4]  
6
  [4]  
4
  [3]  
4
  [3]  
4
  [3]  
4
  [3]  
5 5 5 5 5 5 5
CIG 31 60
  [25]  
60
  [25]  
15
  [7]  
15
  [7]  
15
  [7]  
15
  [7]  
15 15 15 15 15 15 15
Cover OVC BKN
  [OVC]  
BKN
  [OVC]  
OVC
  [OVC]  
OVC
  [OVC]  
OVC
  [OVC]  
OVC
  [OVC]  
OVC OVC OVC OVC OVC OVC OVC
FltCat MVFR VFR
  [MVFR]  
VFR
  [MVFR]  
MVFR
  [IFR]  
MVFR
  [IFR]  
MVFR
  [IFR]  
MVFR
  [IFR]  
MVFR MVFR MVFR MVFR MVFR MVFR MVFR
WX -RA -RA BR
  [RA BR]  
-RA BR
  [RA BR]  
-RA BR
  [-RA BR]  
-RA BR
  [-RA BR]  
-RA BR
  [-RA BR]  
-RA BR
  [-RA BR]  
-SHRA -SHRA -SHRA -SHRA -SHRA -SHRA -SHRA
WDir 140 140
[160]
140
[160]
170
[170]
170
[170]
170
[170]
170
[170]
160 160 160 160 160 160 160
WSpd 11 10
  [10]  
10
  [10]  
11
  [11]  
11
  [11]  
11
  [11]  
11
  [11]  
11 11 11 11 11 11 11
WGst -- --
  [--]  
--
  [--]  
--
  [--]  
--
  [--]  
--
  [--]  
--
  [--]  
-- -- -- -- -- -- --
Raw TAF
KCEC 220538Z 2206/2306 14010KT 6SM -RA BR SCT013 SCT025 BKN060
  TEMPO 2207/2209 16010KT 4SM RA BR SCT005 SCT015 OVC025
  FM220900 17011KT 4SM -RA BR OVC015
  TEMPO 2209/2213 3SM -RA BR OVC007
  FM221300 16011KT 5SM -SHRA SCT007 OVC015
  FM222100 17009KT 3SM BR VCSH OVC025


Raw METAR
KCEC 220556Z AUTO 14011KT 5SM -RA FEW019 BKN031 OVC065 A2988 RMK AO2 SLPNO P0009 60088 51005 $
KCEC 220506Z AUTO 13008KT 7SM -RA SCT018 BKN060 OVC080 13/12 A2987 RMK AO2 P0000 T01280122 $
KCEC 220456Z AUTO 14011KT 5SM -RA BR FEW014 BKN022 OVC080 13/12 A2988 RMK AO2 SLP117 P0003 T01280122
KCEC 220449Z AUTO 16009KT 6SM -RA BR BKN014 BKN022 OVC065 13/12 A2987 RMK AO2 P0002 T01280122
KCEC 220434Z AUTO 15014G20KT 5SM -RA BR BKN016 BKN021 OVC025 13/12 A2989 RMK AO2 P0001 T01280122
KCEC 220356Z AUTO 16012G21KT 6SM -RA BR BKN013 BKN018 OVC023 13/13 A2989 RMK AO2 SLP120 P0003 T01330128
KCEC 220344Z AUTO 14010KT 6SM -RA BR BKN013 BKN018 OVC022 14/13 A2987 RMK AO2 P0003 T01390128

METAR Board
Radar Display
Forecast Discussion
For situational awareness. Not to be used for flight planning purposes.